DAL994 EGHQ-KBOS
Flight info
| Callsign | DAL994 |
|---|---|
| Flight time | N/A |
| Altitude | 30000 |
| Route | GITUS MAPAG AMDEP XETBO LIMRI/M079F360 NATD IBERG/N0448F380 N364A TUSKY EURRO OOSHN5 |
| Aircraft | B764/H-SDE3FGHIM3RWXY/LB1 |
Departure
| Time | N/A |
|---|---|
| Airport | Cornwall Airport Newquay (EGHQ) |
Arrival
| Time | 2026-05-06 20:47 |
|---|---|
| Airport | Boston Logan International Airport (KBOS) |
| Time | Latitude | Longitude | Altitude | Speed | Heading |
|---|---|---|---|---|---|
| 2026-05-06 20:21 | 43.04396 | -68.78986 | 29903 ft | 406 kts | 249° |
| 2026-05-06 20:21 | 43.03344 | -68.82542 | 29902 ft | 407 kts | 249° |
| 2026-05-06 20:21 | 43.01225 | -68.89696 | 29900 ft | 408 kts | 249° |
| 2026-05-06 20:22 | 42.99095 | -68.96863 | 29901 ft | 408 kts | 249° |
| 2026-05-06 20:22 | 42.96973 | -69.03989 | 29890 ft | 406 kts | 249° |
| 2026-05-06 20:23 | 42.94851 | -69.11091 | 29892 ft | 407 kts | 249° |
| 2026-05-06 20:23 | 42.92713 | -69.18227 | 29890 ft | 407 kts | 249° |
| 2026-05-06 20:24 | 42.90567 | -69.25371 | 29893 ft | 406 kts | 249° |
| 2026-05-06 20:24 | 42.88435 | -69.32446 | 29900 ft | 406 kts | 249° |
| 2026-05-06 20:25 | 42.87354 | -69.36029 | 29753 ft | 404 kts | 249° |
| 2026-05-06 20:25 | 42.86304 | -69.39503 | 29224 ft | 401 kts | 249° |
| 2026-05-06 20:25 | 42.85240 | -69.43022 | 28485 ft | 401 kts | 249° |
| 2026-05-06 20:25 | 42.84194 | -69.46471 | 27970 ft | 395 kts | 249° |
| 2026-05-06 20:26 | 42.83148 | -69.49919 | 27368 ft | 392 kts | 249° |
| 2026-05-06 20:26 | 42.82125 | -69.53287 | 26757 ft | 389 kts | 249° |
| 2026-05-06 20:26 | 42.81098 | -69.56661 | 26167 ft | 385 kts | 249° |
| 2026-05-06 20:26 | 42.80073 | -69.60027 | 25520 ft | 383 kts | 249° |
| 2026-05-06 20:27 | 42.79079 | -69.63283 | 25475 ft | 366 kts | 249° |
| 2026-05-06 20:27 | 42.78115 | -69.66439 | 25172 ft | 358 kts | 248° |
| 2026-05-06 20:27 | 42.77163 | -69.69554 | 24591 ft | 357 kts | 248° |
| 2026-05-06 20:27 | 42.76218 | -69.72643 | 24097 ft | 354 kts | 247° |
| 2026-05-06 20:28 | 42.75282 | -69.75697 | 23620 ft | 351 kts | 248° |
| 2026-05-06 20:28 | 42.74346 | -69.78748 | 23129 ft | 348 kts | 247° |
| 2026-05-06 20:28 | 42.73430 | -69.81729 | 22462 ft | 345 kts | 247° |
| 2026-05-06 20:28 | 42.72514 | -69.84710 | 21830 ft | 341 kts | 247° |
| 2026-05-06 20:29 | 42.71608 | -69.87652 | 21190 ft | 338 kts | 247° |
| 2026-05-06 20:29 | 42.70715 | -69.90550 | 20550 ft | 334 kts | 246° |
| 2026-05-06 20:29 | 42.69824 | -69.93437 | 19901 ft | 331 kts | 246° |
| 2026-05-06 20:29 | 42.68938 | -69.96307 | 19277 ft | 327 kts | 246° |
| 2026-05-06 20:30 | 42.68071 | -69.99109 | 18627 ft | 324 kts | 246° |
| 2026-05-06 20:30 | 42.66356 | -70.04649 | 17420 ft | 316 kts | 245° |
| 2026-05-06 20:30 | 42.65505 | -70.07390 | 16784 ft | 312 kts | 245° |
| 2026-05-06 20:31 | 42.64655 | -70.10029 | 16188 ft | 309 kts | 243° |
| 2026-05-06 20:31 | 42.63750 | -70.12646 | 15638 ft | 303 kts | 243° |
| 2026-05-06 20:31 | 42.62862 | -70.15231 | 14963 ft | 302 kts | 243° |
| 2026-05-06 20:31 | 42.61999 | -70.17744 | 14793 ft | 284 kts | 243° |
| 2026-05-06 20:32 | 42.60933 | -70.20845 | 14412 ft | 270 kts | 242° |
| 2026-05-06 20:32 | 42.60439 | -70.22382 | 13943 ft | 272 kts | 249° |
| 2026-05-06 20:32 | 42.60148 | -70.24881 | 13964 ft | 267 kts | 260° |
| 2026-05-06 20:32 | 42.60007 | -70.27441 | 13568 ft | 278 kts | 260° |
| 2026-05-06 20:33 | 42.59864 | -70.30055 | 13029 ft | 282 kts | 260° |
| 2026-05-06 20:33 | 42.59728 | -70.32733 | 12503 ft | 284 kts | 261° |
| 2026-05-06 20:33 | 42.59605 | -70.35336 | 12488 ft | 270 kts | 260° |
| 2026-05-06 20:33 | 42.59487 | -70.37820 | 12253 ft | 265 kts | 260° |
| 2026-05-06 20:34 | 42.59369 | -70.40280 | 11910 ft | 262 kts | 260° |
| 2026-05-06 20:34 | 42.59250 | -70.42756 | 11541 ft | 262 kts | 260° |
| 2026-05-06 20:34 | 42.59134 | -70.45216 | 11197 ft | 261 kts | 259° |
| 2026-05-06 20:34 | 42.59017 | -70.47653 | 10850 ft | 259 kts | 259° |
| 2026-05-06 20:35 | 42.58903 | -70.50062 | 10448 ft | 260 kts | 259° |
| 2026-05-06 20:35 | 42.58786 | -70.52507 | 10249 ft | 253 kts | 259° |
| 2026-05-06 20:35 | 42.58678 | -70.54824 | 10096 ft | 245 kts | 259° |
| 2026-05-06 20:35 | 42.58478 | -70.57083 | 9714 ft | 240 kts | 250° |
| 2026-05-06 20:36 | 42.57999 | -70.59257 | 9368 ft | 238 kts | 248° |
| 2026-05-06 20:36 | 42.57531 | -70.61388 | 9037 ft | 238 kts | 249° |
| 2026-05-06 20:36 | 42.57061 | -70.63544 | 8747 ft | 236 kts | 249° |
| 2026-05-06 20:36 | 42.56595 | -70.65672 | 8410 ft | 236 kts | 248° |
| 2026-05-06 20:37 | 42.56144 | -70.67791 | 8111 ft | 237 kts | 252° |
| 2026-05-06 20:37 | 42.56198 | -70.70052 | 7777 ft | 252 kts | 280° |
| 2026-05-06 20:37 | 42.57019 | -70.72031 | 7477 ft | 265 kts | 299° |
| 2026-05-06 20:37 | 42.58149 | -70.73970 | 7222 ft | 262 kts | 298° |
| 2026-05-06 20:38 | 42.59297 | -70.75843 | 7206 ft | 256 kts | 310° |
| 2026-05-06 20:38 | 42.60865 | -70.77007 | 7049 ft | 269 kts | 339° |
| 2026-05-06 20:38 | 42.62774 | -70.77138 | 6830 ft | 274 kts | 354° |
| 2026-05-06 20:38 | 42.64592 | -70.77599 | 6526 ft | 259 kts | 324° |
| 2026-05-06 20:39 | 42.65910 | -70.79061 | 6242 ft | 238 kts | 294° |
| 2026-05-06 20:39 | 42.66680 | -70.81013 | 5933 ft | 232 kts | 285° |
| 2026-05-06 20:39 | 42.67080 | -70.83008 | 5905 ft | 212 kts | 260° |
| 2026-05-06 20:39 | 42.66693 | -70.84847 | 5693 ft | 202 kts | 238° |
| 2026-05-06 20:40 | 42.65895 | -70.86406 | 5426 ft | 199 kts | 217° |
| 2026-05-06 20:40 | 42.64637 | -70.87151 | 5135 ft | 202 kts | 199° |
| 2026-05-06 20:40 | 42.63291 | -70.87704 | 4907 ft | 201 kts | 201° |
| 2026-05-06 20:40 | 42.61967 | -70.88296 | 4734 ft | 196 kts | 202° |
| 2026-05-06 20:41 | 42.60714 | -70.88864 | 4731 ft | 185 kts | 202° |
| 2026-05-06 20:41 | 42.59506 | -70.89423 | 4546 ft | 182 kts | 203° |
| 2026-05-06 20:41 | 42.58324 | -70.89980 | 4326 ft | 182 kts | 202° |
| 2026-05-06 20:41 | 42.57132 | -70.90546 | 4097 ft | 181 kts | 203° |
| 2026-05-06 20:42 | 42.55944 | -70.91112 | 3874 ft | 181 kts | 203° |
| 2026-05-06 20:42 | 42.54774 | -70.91673 | 3703 ft | 175 kts | 204° |
| 2026-05-06 20:42 | 42.53629 | -70.92225 | 3452 ft | 173 kts | 204° |
| 2026-05-06 20:42 | 42.52503 | -70.92769 | 3211 ft | 172 kts | 204° |
| 2026-05-06 20:43 | 42.51380 | -70.93313 | 2970 ft | 170 kts | 203° |
| 2026-05-06 20:43 | 42.50274 | -70.93849 | 2729 ft | 168 kts | 203° |
| 2026-05-06 20:43 | 42.49180 | -70.94380 | 2508 ft | 167 kts | 203° |
| 2026-05-06 20:43 | 42.48103 | -70.94902 | 2264 ft | 160 kts | 202° |
| 2026-05-06 20:44 | 42.47088 | -70.95392 | 2028 ft | 148 kts | 203° |
| 2026-05-06 20:44 | 42.46158 | -70.95841 | 1866 ft | 137 kts | 202° |
| 2026-05-06 20:44 | 42.45260 | -70.96278 | 1680 ft | 140 kts | 202° |
| 2026-05-06 20:44 | 42.44313 | -70.96736 | 1496 ft | 147 kts | 201° |
| 2026-05-06 20:45 | 42.43366 | -70.97194 | 1271 ft | 139 kts | 201° |
| 2026-05-06 20:45 | 42.42524 | -70.97598 | 1143 ft | 116 kts | 201° |
| 2026-05-06 20:45 | 42.41793 | -70.97952 | 976 ft | 111 kts | 201° |
| 2026-05-06 20:45 | 42.41046 | -70.98315 | 833 ft | 117 kts | 201° |
| 2026-05-06 20:46 | 42.40253 | -70.98699 | 680 ft | 125 kts | 200° |
| 2026-05-06 20:46 | 42.39429 | -70.99096 | 499 ft | 124 kts | 200° |
| 2026-05-06 20:46 | 42.38625 | -70.99483 | 314 ft | 123 kts | 200° |
| 2026-05-06 20:46 | 42.37803 | -70.99880 | 151 ft | 125 kts | 199° |
| 2026-05-06 20:47 | 42.36980 | -71.00275 | 24 ft | 125 kts | 199° |
| 2026-05-06 20:47 | 42.36257 | -71.00623 | 21 ft | 89 kts | 199° |
| 2026-05-06 20:47 | 42.35903 | -71.00791 | 22 ft | 23 kts | 199° |
| 2026-05-06 20:47 | 42.35821 | -71.00870 | 23 ft | 9 kts | 245° |
| 2026-05-06 20:48 | 42.35815 | -71.00948 | 23 ft | 7 kts | 271° |
| 2026-05-06 20:48 | 42.35819 | -71.01013 | 24 ft | 6 kts | 277° |
| 2026-05-06 20:48 | 42.35825 | -71.01073 | 24 ft | 6 kts | 277° |
| 2026-05-06 20:48 | 42.35831 | -71.01131 | 24 ft | 6 kts | 279° |
| 2026-05-06 20:49 | 42.35838 | -71.01188 | 24 ft | 6 kts | 278° |
| 2026-05-06 20:49 | 42.35844 | -71.01244 | 24 ft | 6 kts | 278° |
| 2026-05-06 20:49 | 42.35850 | -71.01301 | 24 ft | 6 kts | 278° |
| 2026-05-06 20:49 | 42.35856 | -71.01360 | 24 ft | 6 kts | 278° |
| 2026-05-06 20:50 | 42.35862 | -71.01421 | 24 ft | 7 kts | 277° |
| 2026-05-06 20:50 | 42.35878 | -71.01497 | 24 ft | 9 kts | 304° |
| 2026-05-06 20:50 | 42.35932 | -71.01521 | 24 ft | 10 kts | 4° |
| 2026-05-06 20:50 | 42.36024 | -71.01484 | 24 ft | 16 kts | 19° |
| 2026-05-06 20:51 | 42.36134 | -71.01431 | 23 ft | 16 kts | 20° |
| 2026-05-06 20:51 | 42.36239 | -71.01379 | 23 ft | 14 kts | 20° |
| 2026-05-06 20:51 | 42.36300 | -71.01348 | 23 ft | 6 kts | 20° |
| 2026-05-06 20:51 | 42.36340 | -71.01346 | 22 ft | 5 kts | 345° |
| 2026-05-06 20:52 | 42.36364 | -71.01375 | 22 ft | 5 kts | 300° |
| 2026-05-06 20:52 | 42.36381 | -71.01433 | 22 ft | 7 kts | 291° |
| 2026-05-06 20:52 | 42.36406 | -71.01501 | 22 ft | 8 kts | 298° |
| 2026-05-06 20:52 | 42.36439 | -71.01576 | 22 ft | 7 kts | 312° |
| 2026-05-06 20:53 | 42.36483 | -71.01595 | 22 ft | 6 kts | 6° |
| 2026-05-06 20:53 | 42.36519 | -71.01575 | 22 ft | 5 kts | 29° |
| 2026-05-06 20:53 | 42.36531 | -71.01563 | 22 ft | 0 kts | 34° |